sensor_id;sensor_type;location;lat;lon;timestamp;temperature;humidity
48728;DHT22;34527;45.618;5.130;2024-02-28T00:01:50;8.30;99.90
48728;DHT22;34527;45.618;5.130;2024-02-28T00:04:16;8.30;99.90
48728;DHT22;34527;45.618;5.130;2024-02-28T00:06:42;8.30;99.90
48728;DHT22;34527;45.618;5.130;2024-02-28T00:09:08;8.30;99.90
48728;DHT22;34527;45.618;5.130;2024-02-28T00:11:33;8.30;99.90
48728;DHT22;34527;45.618;5.130;2024-02-28T00:13:59;8.30;99.90
48728;DHT22;34527;45.618;5.130;2024-02-28T00:16:28;8.30;99.90
48728;DHT22;34527;45.618;5.130;2024-02-28T00:18:53;8.30;99.90
48728;DHT22;34527;45.618;5.130;2024-02-28T00:21:19;8.30;99.90
48728;DHT22;34527;45.618;5.130;2024-02-28T00:23:45;8.30;99.90
48728;DHT22;34527;45.618;5.130;2024-02-28T00:26:12;8.30;99.90
48728;DHT22;34527;45.618;5.130;2024-02-28T00:28:37;8.20;99.90
48728;DHT22;34527;45.618;5.130;2024-02-28T00:31:03;8.20;99.90
48728;DHT22;34527;45.618;5.130;2024-02-28T00:33:29;8.20;99.90
48728;DHT22;34527;45.618;5.130;2024-02-28T00:35:54;8.20;99.90
48728;DHT22;34527;45.618;5.130;2024-02-28T00:38:20;8.20;99.90
48728;DHT22;34527;45.618;5.130;2024-02-28T00:40:46;8.20;99.90
48728;DHT22;34527;45.618;5.130;2024-02-28T00:43:11;8.20;99.90
48728;DHT22;34527;45.618;5.130;2024-02-28T00:45:37;8.20;99.90
48728;DHT22;34527;45.618;5.130;2024-02-28T00:48:03;8.20;99.90
48728;DHT22;34527;45.618;5.130;2024-02-28T00:50:28;8.20;99.90
48728;DHT22;34527;45.618;5.130;2024-02-28T00:52:54;8.20;99.90
48728;DHT22;34527;45.618;5.130;2024-02-28T00:55:20;8.20;99.90
48728;DHT22;34527;45.618;5.130;2024-02-28T00:57:45;8.20;99.90
48728;DHT22;34527;45.618;5.130;2024-02-28T01:00:11;8.20;99.90
48728;DHT22;34527;45.618;5.130;2024-02-28T01:02:37;8.20;99.90
48728;DHT22;34527;45.618;5.130;2024-02-28T01:05:03;8.10;99.90
48728;DHT22;34527;45.618;5.130;2024-02-28T01:07:28;8.10;99.90
48728;DHT22;34527;45.618;5.130;2024-02-28T01:09:54;8.10;99.90
48728;DHT22;34527;45.618;5.130;2024-02-28T01:12:19;8.10;99.90
48728;DHT22;34527;45.618;5.130;2024-02-28T01:14:45;8.10;99.90
48728;DHT22;34527;45.618;5.130;2024-02-28T01:17:11;8.00;99.90
48728;DHT22;34527;45.618;5.130;2024-02-28T01:19:36;8.00;99.90
48728;DHT22;34527;45.618;5.130;2024-02-28T01:22:02;8.00;99.90
48728;DHT22;34527;45.618;5.130;2024-02-28T01:24:27;8.00;99.90
48728;DHT22;34527;45.618;5.130;2024-02-28T01:26:53;7.90;99.90
48728;DHT22;34527;45.618;5.130;2024-02-28T01:29:19;8.00;99.90
48728;DHT22;34527;45.618;5.130;2024-02-28T01:31:44;7.90;99.90
48728;DHT22;34527;45.618;5.130;2024-02-28T01:34:10;7.90;99.90
48728;DHT22;34527;45.618;5.130;2024-02-28T01:36:35;7.90;99.90
48728;DHT22;34527;45.618;5.130;2024-02-28T01:39:01;7.80;99.90
48728;DHT22;34527;45.618;5.130;2024-02-28T01:41:27;7.80;99.90
48728;DHT22;34527;45.618;5.130;2024-02-28T01:43:52;7.80;99.90
48728;DHT22;34527;45.618;5.130;2024-02-28T01:46:26;7.70;99.90
48728;DHT22;34527;45.618;5.130;2024-02-28T01:48:53;7.70;99.90
48728;DHT22;34527;45.618;5.130;2024-02-28T01:51:21;7.70;99.90
48728;DHT22;34527;45.618;5.130;2024-02-28T01:53:48;7.70;99.90
48728;DHT22;34527;45.618;5.130;2024-02-28T01:56:16;7.70;99.90
48728;DHT22;34527;45.618;5.130;2024-02-28T01:58:44;7.70;99.90
48728;DHT22;34527;45.618;5.130;2024-02-28T02:01:12;7.70;99.90
48728;DHT22;34527;45.618;5.130;2024-02-28T02:03:37;7.70;99.90
48728;DHT22;34527;45.618;5.130;2024-02-28T02:06:03;7.70;99.90
48728;DHT22;34527;45.618;5.130;2024-02-28T02:08:29;7.60;99.90
48728;DHT22;34527;45.618;5.130;2024-02-28T02:10:55;7.60;99.90
48728;DHT22;34527;45.618;5.130;2024-02-28T02:13:22;7.60;99.90
48728;DHT22;34527;45.618;5.130;2024-02-28T02:15:47;7.60;99.90
48728;DHT22;34527;45.618;5.130;2024-02-28T02:18:13;7.60;99.90
48728;DHT22;34527;45.618;5.130;2024-02-28T02:20:43;7.60;99.90
48728;DHT22;34527;45.618;5.130;2024-02-28T02:23:09;7.60;99.90
48728;DHT22;34527;45.618;5.130;2024-02-28T02:25:46;7.50;99.90
48728;DHT22;34527;45.618;5.130;2024-02-28T02:28:12;7.50;99.90
48728;DHT22;34527;45.618;5.130;2024-02-28T02:30:39;7.50;99.90
48728;DHT22;34527;45.618;5.130;2024-02-28T02:33:05;7.50;99.90
48728;DHT22;34527;45.618;5.130;2024-02-28T02:35:31;7.50;99.90
48728;DHT22;34527;45.618;5.130;2024-02-28T02:37:57;7.50;99.90
48728;DHT22;34527;45.618;5.130;2024-02-28T02:40:23;7.50;99.90
48728;DHT22;34527;45.618;5.130;2024-02-28T02:42:48;7.40;99.90
48728;DHT22;34527;45.618;5.130;2024-02-28T02:45:14;7.40;99.90
48728;DHT22;34527;45.618;5.130;2024-02-28T02:47:40;7.40;99.90
48728;DHT22;34527;45.618;5.130;2024-02-28T02:50:05;7.40;99.90
48728;DHT22;34527;45.618;5.130;2024-02-28T02:52:32;7.30;99.90
48728;DHT22;34527;45.618;5.130;2024-02-28T02:54:57;7.30;99.90
48728;DHT22;34527;45.618;5.130;2024-02-28T02:57:23;7.30;99.90
48728;DHT22;34527;45.618;5.130;2024-02-28T02:59:49;7.30;99.90
48728;DHT22;34527;45.618;5.130;2024-02-28T03:02:14;7.30;99.90
48728;DHT22;34527;45.618;5.130;2024-02-28T03:04:40;7.20;99.90
48728;DHT22;34527;45.618;5.130;2024-02-28T03:07:05;7.20;99.90
48728;DHT22;34527;45.618;5.130;2024-02-28T03:09:31;7.20;99.90
48728;DHT22;34527;45.618;5.130;2024-02-28T03:11:56;7.10;99.90
48728;DHT22;34527;45.618;5.130;2024-02-28T03:14:22;7.20;99.90
48728;DHT22;34527;45.618;5.130;2024-02-28T03:16:48;7.20;99.90
48728;DHT22;34527;45.618;5.130;2024-02-28T03:19:14;7.10;99.90
48728;DHT22;34527;45.618;5.130;2024-02-28T03:21:40;7.10;99.90
48728;DHT22;34527;45.618;5.130;2024-02-28T03:24:06;7.10;99.90
48728;DHT22;34527;45.618;5.130;2024-02-28T03:26:32;7.00;99.90
48728;DHT22;34527;45.618;5.130;2024-02-28T03:28:58;7.00;99.90
48728;DHT22;34527;45.618;5.130;2024-02-28T03:31:24;7.00;99.90
48728;DHT22;34527;45.618;5.130;2024-02-28T03:33:50;7.00;99.90
48728;DHT22;34527;45.618;5.130;2024-02-28T03:36:16;7.00;99.90
48728;DHT22;34527;45.618;5.130;2024-02-28T03:38:41;7.00;99.90
48728;DHT22;34527;45.618;5.130;2024-02-28T03:41:07;7.00;99.90
48728;DHT22;34527;45.618;5.130;2024-02-28T03:43:33;7.00;99.90
48728;DHT22;34527;45.618;5.130;2024-02-28T03:45:58;7.00;99.90
48728;DHT22;34527;45.618;5.130;2024-02-28T03:48:24;7.00;99.90
48728;DHT22;34527;45.618;5.130;2024-02-28T03:50:49;7.00;99.90
48728;DHT22;34527;45.618;5.130;2024-02-28T03:53:16;7.00;99.90
48728;DHT22;34527;45.618;5.130;2024-02-28T03:55:42;7.00;99.90
48728;DHT22;34527;45.618;5.130;2024-02-28T03:58:09;6.90;99.90
48728;DHT22;34527;45.618;5.130;2024-02-28T04:00:35;6.90;99.90
48728;DHT22;34527;45.618;5.130;2024-02-28T04:03:02;6.90;99.90
48728;DHT22;34527;45.618;5.130;2024-02-28T04:05:28;6.90;99.90
48728;DHT22;34527;45.618;5.130;2024-02-28T04:07:54;6.90;99.90
48728;DHT22;34527;45.618;5.130;2024-02-28T04:10:20;6.90;99.90
48728;DHT22;34527;45.618;5.130;2024-02-28T04:12:46;6.90;99.90
48728;DHT22;34527;45.618;5.130;2024-02-28T04:15:12;6.90;99.90
48728;DHT22;34527;45.618;5.130;2024-02-28T04:17:38;6.90;99.90
48728;DHT22;34527;45.618;5.130;2024-02-28T04:20:08;6.90;99.90
48728;DHT22;34527;45.618;5.130;2024-02-28T04:22:34;6.90;99.90
48728;DHT22;34527;45.618;5.130;2024-02-28T04:24:59;6.90;99.90
48728;DHT22;34527;45.618;5.130;2024-02-28T04:27:25;6.90;99.90
48728;DHT22;34527;45.618;5.130;2024-02-28T04:29:51;6.80;99.90
48728;DHT22;34527;45.618;5.130;2024-02-28T04:32:16;6.80;99.90
48728;DHT22;34527;45.618;5.130;2024-02-28T04:34:42;6.80;99.90
48728;DHT22;34527;45.618;5.130;2024-02-28T04:37:07;6.90;99.90
48728;DHT22;34527;45.618;5.130;2024-02-28T04:39:33;6.80;99.90
48728;DHT22;34527;45.618;5.130;2024-02-28T04:41:59;6.80;99.90
48728;DHT22;34527;45.618;5.130;2024-02-28T04:44:24;6.80;99.90
48728;DHT22;34527;45.618;5.130;2024-02-28T04:46:50;6.80;99.90
48728;DHT22;34527;45.618;5.130;2024-02-28T04:49:15;6.80;99.90
48728;DHT22;34527;45.618;5.130;2024-02-28T04:51:41;6.80;99.90
48728;DHT22;34527;45.618;5.130;2024-02-28T04:54:06;6.80;99.90
48728;DHT22;34527;45.618;5.130;2024-02-28T04:56:32;6.70;99.90
48728;DHT22;34527;45.618;5.130;2024-02-28T04:58:58;6.70;99.90
48728;DHT22;34527;45.618;5.130;2024-02-28T05:01:23;6.70;99.90
48728;DHT22;34527;45.618;5.130;2024-02-28T05:03:49;6.70;99.90
48728;DHT22;34527;45.618;5.130;2024-02-28T05:06:14;6.70;99.90
48728;DHT22;34527;45.618;5.130;2024-02-28T05:08:40;6.70;99.90
48728;DHT22;34527;45.618;5.130;2024-02-28T05:11:06;6.70;99.90
48728;DHT22;34527;45.618;5.130;2024-02-28T05:13:31;6.70;99.90
48728;DHT22;34527;45.618;5.130;2024-02-28T05:15:57;6.70;99.90
48728;DHT22;34527;45.618;5.130;2024-02-28T05:18:22;6.70;99.90
48728;DHT22;34527;45.618;5.130;2024-02-28T05:20:48;6.70;99.90
48728;DHT22;34527;45.618;5.130;2024-02-28T05:23:13;6.70;99.90
48728;DHT22;34527;45.618;5.130;2024-02-28T05:25:39;6.70;99.90
48728;DHT22;34527;45.618;5.130;2024-02-28T05:28:05;6.70;99.90
48728;DHT22;34527;45.618;5.130;2024-02-28T05:30:30;6.70;99.90
48728;DHT22;34527;45.618;5.130;2024-02-28T05:32:56;6.70;99.90
48728;DHT22;34527;45.618;5.130;2024-02-28T05:35:21;6.70;99.90
48728;DHT22;34527;45.618;5.130;2024-02-28T05:37:47;6.70;99.90
48728;DHT22;34527;45.618;5.130;2024-02-28T05:40:13;6.70;99.90
48728;DHT22;34527;45.618;5.130;2024-02-28T05:42:39;6.70;99.90
48728;DHT22;34527;45.618;5.130;2024-02-28T05:45:06;6.60;99.90
48728;DHT22;34527;45.618;5.130;2024-02-28T05:47:32;6.60;99.90
48728;DHT22;34527;45.618;5.130;2024-02-28T05:49:57;6.60;99.90
48728;DHT22;34527;45.618;5.130;2024-02-28T05:52:24;6.70;99.90
48728;DHT22;34527;45.618;5.130;2024-02-28T05:54:52;6.70;99.90
48728;DHT22;34527;45.618;5.130;2024-02-28T05:57:18;6.60;99.90
48728;DHT22;34527;45.618;5.130;2024-02-28T05:59:44;6.60;99.90
48728;DHT22;34527;45.618;5.130;2024-02-28T06:02:10;6.60;99.90
48728;DHT22;34527;45.618;5.130;2024-02-28T06:04:35;6.60;99.90
48728;DHT22;34527;45.618;5.130;2024-02-28T06:07:01;6.60;99.90
48728;DHT22;34527;45.618;5.130;2024-02-28T06:09:26;6.60;99.90
48728;DHT22;34527;45.618;5.130;2024-02-28T06:11:55;6.60;99.90
48728;DHT22;34527;45.618;5.130;2024-02-28T06:14:21;6.50;99.90
48728;DHT22;34527;45.618;5.130;2024-02-28T06:16:47;6.60;99.90
48728;DHT22;34527;45.618;5.130;2024-02-28T06:19:12;6.50;99.90
48728;DHT22;34527;45.618;5.130;2024-02-28T06:21:38;6.60;99.90
48728;DHT22;34527;45.618;5.130;2024-02-28T06:24:04;6.60;99.90
48728;DHT22;34527;45.618;5.130;2024-02-28T06:26:30;6.50;99.90
48728;DHT22;34527;45.618;5.130;2024-02-28T06:28:57;6.60;99.90
48728;DHT22;34527;45.618;5.130;2024-02-28T06:31:27;6.60;99.90
48728;DHT22;34527;45.618;5.130;2024-02-28T06:33:57;6.50;99.90
48728;DHT22;34527;45.618;5.130;2024-02-28T06:36:22;6.60;99.90
48728;DHT22;34527;45.618;5.130;2024-02-28T06:38:48;6.50;99.90
48728;DHT22;34527;45.618;5.130;2024-02-28T06:41:14;6.50;99.90
48728;DHT22;34527;45.618;5.130;2024-02-28T06:43:39;6.50;99.90
48728;DHT22;34527;45.618;5.130;2024-02-28T06:46:05;6.50;99.90
48728;DHT22;34527;45.618;5.130;2024-02-28T06:48:31;6.50;99.90
48728;DHT22;34527;45.618;5.130;2024-02-28T06:50:56;6.60;99.90
48728;DHT22;34527;45.618;5.130;2024-02-28T06:53:23;6.50;99.90
48728;DHT22;34527;45.618;5.130;2024-02-28T06:55:49;6.50;99.90
48728;DHT22;34527;45.618;5.130;2024-02-28T06:58:15;6.50;99.90
48728;DHT22;34527;45.618;5.130;2024-02-28T07:00:40;6.50;99.90
48728;DHT22;34527;45.618;5.130;2024-02-28T07:03:06;6.50;99.90
48728;DHT22;34527;45.618;5.130;2024-02-28T07:05:32;6.50;99.90
48728;DHT22;34527;45.618;5.130;2024-02-28T07:08:01;6.50;99.90
48728;DHT22;34527;45.618;5.130;2024-02-28T07:10:27;6.40;99.90
48728;DHT22;34527;45.618;5.130;2024-02-28T07:12:53;6.50;99.90
48728;DHT22;34527;45.618;5.130;2024-02-28T07:15:18;6.50;99.90
48728;DHT22;34527;45.618;5.130;2024-02-28T07:17:47;6.40;99.90
48728;DHT22;34527;45.618;5.130;2024-02-28T07:20:12;6.50;99.90
48728;DHT22;34527;45.618;5.130;2024-02-28T07:22:38;6.50;99.90
48728;DHT22;34527;45.618;5.130;2024-02-28T07:25:05;6.40;99.90
48728;DHT22;34527;45.618;5.130;2024-02-28T07:27:31;6.50;99.90
48728;DHT22;34527;45.618;5.130;2024-02-28T07:29:56;6.40;99.90
48728;DHT22;34527;45.618;5.130;2024-02-28T07:32:22;6.40;99.90
48728;DHT22;34527;45.618;5.130;2024-02-28T07:34:48;6.40;99.90
48728;DHT22;34527;45.618;5.130;2024-02-28T07:37:14;6.40;99.90
48728;DHT22;34527;45.618;5.130;2024-02-28T07:39:39;6.40;99.90
48728;DHT22;34527;45.618;5.130;2024-02-28T07:42:05;6.40;99.90
48728;DHT22;34527;45.618;5.130;2024-02-28T07:44:31;6.40;99.90
48728;DHT22;34527;45.618;5.130;2024-02-28T07:46:58;6.30;99.90
48728;DHT22;34527;45.618;5.130;2024-02-28T07:49:24;6.40;99.90
48728;DHT22;34527;45.618;5.130;2024-02-28T07:51:50;6.30;99.90
48728;DHT22;34527;45.618;5.130;2024-02-28T07:54:16;6.40;99.90
48728;DHT22;34527;45.618;5.130;2024-02-28T07:56:43;6.40;99.90
48728;DHT22;34527;45.618;5.130;2024-02-28T07:59:09;6.40;99.90
48728;DHT22;34527;45.618;5.130;2024-02-28T08:01:35;6.40;99.90
48728;DHT22;34527;45.618;5.130;2024-02-28T08:04:01;6.40;99.90
48728;DHT22;34527;45.618;5.130;2024-02-28T08:06:27;6.40;99.90
48728;DHT22;34527;45.618;5.130;2024-02-28T08:08:53;6.40;99.90
48728;DHT22;34527;45.618;5.130;2024-02-28T08:11:19;6.40;99.90
48728;DHT22;34527;45.618;5.130;2024-02-28T08:13:44;6.40;99.90
48728;DHT22;34527;45.618;5.130;2024-02-28T08:16:10;6.40;99.90
48728;DHT22;34527;45.618;5.130;2024-02-28T08:18:36;6.40;99.90
48728;DHT22;34527;45.618;5.130;2024-02-28T08:21:02;6.40;99.90
48728;DHT22;34527;45.618;5.130;2024-02-28T08:23:30;6.40;99.90
48728;DHT22;34527;45.618;5.130;2024-02-28T08:25:56;6.40;99.90
48728;DHT22;34527;45.618;5.130;2024-02-28T08:28:22;6.40;99.90
48728;DHT22;34527;45.618;5.130;2024-02-28T08:30:49;6.40;99.90
48728;DHT22;34527;45.618;5.130;2024-02-28T08:33:14;6.40;99.90
48728;DHT22;34527;45.618;5.130;2024-02-28T08:35:40;6.40;99.90
48728;DHT22;34527;45.618;5.130;2024-02-28T08:38:06;6.40;99.90
48728;DHT22;34527;45.618;5.130;2024-02-28T08:40:31;6.40;99.90
48728;DHT22;34527;45.618;5.130;2024-02-28T08:42:57;6.40;99.90
48728;DHT22;34527;45.618;5.130;2024-02-28T08:45:23;6.40;99.90
48728;DHT22;34527;45.618;5.130;2024-02-28T08:47:48;6.40;99.90
48728;DHT22;34527;45.618;5.130;2024-02-28T08:50:14;6.40;99.90
48728;DHT22;34527;45.618;5.130;2024-02-28T08:52:40;6.30;99.90
48728;DHT22;34527;45.618;5.130;2024-02-28T08:55:05;6.40;99.90
48728;DHT22;34527;45.618;5.130;2024-02-28T08:57:31;6.40;99.90
48728;DHT22;34527;45.618;5.130;2024-02-28T08:59:57;6.40;99.90
48728;DHT22;34527;45.618;5.130;2024-02-28T09:02:23;6.40;99.90
48728;DHT22;34527;45.618;5.130;2024-02-28T09:04:48;6.40;99.90
48728;DHT22;34527;45.618;5.130;2024-02-28T09:07:20;6.40;99.90
48728;DHT22;34527;45.618;5.130;2024-02-28T09:09:45;6.40;99.90
48728;DHT22;34527;45.618;5.130;2024-02-28T09:12:12;6.30;99.90
48728;DHT22;34527;45.618;5.130;2024-02-28T09:14:38;6.30;99.90
48728;DHT22;34527;45.618;5.130;2024-02-28T09:17:04;6.30;99.90
48728;DHT22;34527;45.618;5.130;2024-02-28T09:19:32;6.30;99.90
48728;DHT22;34527;45.618;5.130;2024-02-28T09:21:58;6.30;99.90
48728;DHT22;34527;45.618;5.130;2024-02-28T09:24:24;6.30;99.90
48728;DHT22;34527;45.618;5.130;2024-02-28T09:26:50;6.30;99.90
48728;DHT22;34527;45.618;5.130;2024-02-28T09:29:16;6.20;99.90
48728;DHT22;34527;45.618;5.130;2024-02-28T09:31:41;6.20;99.90
48728;DHT22;34527;45.618;5.130;2024-02-28T09:34:07;6.20;99.90
48728;DHT22;34527;45.618;5.130;2024-02-28T09:36:44;6.10;99.90
48728;DHT22;34527;45.618;5.130;2024-02-28T09:39:12;6.10;99.90
48728;DHT22;34527;45.618;5.130;2024-02-28T09:41:38;6.20;99.90
48728;DHT22;34527;45.618;5.130;2024-02-28T09:44:06;6.20;99.90
48728;DHT22;34527;45.618;5.130;2024-02-28T09:46:33;6.10;99.90
48728;DHT22;34527;45.618;5.130;2024-02-28T09:49:05;6.20;99.90
48728;DHT22;34527;45.618;5.130;2024-02-28T09:51:34;6.10;99.90
48728;DHT22;34527;45.618;5.130;2024-02-28T09:54:03;6.10;99.90
48728;DHT22;34527;45.618;5.130;2024-02-28T09:56:30;6.20;99.90
48728;DHT22;34527;45.618;5.130;2024-02-28T09:58:56;6.20;99.90
48728;DHT22;34527;45.618;5.130;2024-02-28T10:01:22;6.20;99.90
48728;DHT22;34527;45.618;5.130;2024-02-28T10:03:52;6.30;99.90
48728;DHT22;34527;45.618;5.130;2024-02-28T10:06:22;6.30;99.90
48728;DHT22;34527;45.618;5.130;2024-02-28T10:08:48;6.30;99.90
48728;DHT22;34527;45.618;5.130;2024-02-28T10:11:18;6.30;99.90
48728;DHT22;34527;45.618;5.130;2024-02-28T10:13:45;6.30;99.90
48728;DHT22;34527;45.618;5.130;2024-02-28T10:16:11;6.30;99.90
48728;DHT22;34527;45.618;5.130;2024-02-28T10:18:37;6.40;99.90
48728;DHT22;34527;45.618;5.130;2024-02-28T10:21:03;6.30;99.90
48728;DHT22;34527;45.618;5.130;2024-02-28T10:23:29;6.40;99.90
48728;DHT22;34527;45.618;5.130;2024-02-28T10:25:54;6.40;99.90
48728;DHT22;34527;45.618;5.130;2024-02-28T10:28:21;6.40;99.90
48728;DHT22;34527;45.618;5.130;2024-02-28T10:30:47;6.40;99.90
48728;DHT22;34527;45.618;5.130;2024-02-28T10:33:13;6.40;99.90
48728;DHT22;34527;45.618;5.130;2024-02-28T10:35:40;6.40;99.90
48728;DHT22;34527;45.618;5.130;2024-02-28T10:38:06;6.40;99.90
48728;DHT22;34527;45.618;5.130;2024-02-28T10:40:32;6.40;99.90
48728;DHT22;34527;45.618;5.130;2024-02-28T10:42:58;6.50;99.90
48728;DHT22;34527;45.618;5.130;2024-02-28T10:45:25;6.50;99.90
48728;DHT22;34527;45.618;5.130;2024-02-28T10:47:54;6.40;99.90
48728;DHT22;34527;45.618;5.130;2024-02-28T10:50:21;6.50;99.90
48728;DHT22;34527;45.618;5.130;2024-02-28T10:52:48;6.50;99.90
48728;DHT22;34527;45.618;5.130;2024-02-28T10:55:21;6.50;99.90
48728;DHT22;34527;45.618;5.130;2024-02-28T10:58:03;6.50;99.90
48728;DHT22;34527;45.618;5.130;2024-02-28T11:00:30;6.60;99.90
48728;DHT22;34527;45.618;5.130;2024-02-28T11:02:57;6.60;99.90
48728;DHT22;34527;45.618;5.130;2024-02-28T11:05:24;6.60;99.90
48728;DHT22;34527;45.618;5.130;2024-02-28T11:08:00;6.60;99.90
48728;DHT22;34527;45.618;5.130;2024-02-28T11:10:31;6.60;99.90
48728;DHT22;34527;45.618;5.130;2024-02-28T11:12:58;6.60;99.90
48728;DHT22;34527;45.618;5.130;2024-02-28T11:15:25;6.70;99.90
48728;DHT22;34527;45.618;5.130;2024-02-28T11:17:52;6.60;99.90
48728;DHT22;34527;45.618;5.130;2024-02-28T11:20:18;6.70;99.90
48728;DHT22;34527;45.618;5.130;2024-02-28T11:22:44;6.70;99.90
48728;DHT22;34527;45.618;5.130;2024-02-28T11:25:09;6.60;99.90
48728;DHT22;34527;45.618;5.130;2024-02-28T11:27:48;6.70;99.90
48728;DHT22;34527;45.618;5.130;2024-02-28T11:30:14;6.80;99.90
48728;DHT22;34527;45.618;5.130;2024-02-28T11:32:41;6.80;99.90
48728;DHT22;34527;45.618;5.130;2024-02-28T11:35:07;6.80;99.90
48728;DHT22;34527;45.618;5.130;2024-02-28T11:37:34;6.80;99.90
48728;DHT22;34527;45.618;5.130;2024-02-28T11:39:59;6.80;99.90
48728;DHT22;34527;45.618;5.130;2024-02-28T11:42:25;6.90;99.90
48728;DHT22;34527;45.618;5.130;2024-02-28T11:44:54;6.90;99.90
48728;DHT22;34527;45.618;5.130;2024-02-28T11:47:22;6.90;99.90
48728;DHT22;34527;45.618;5.130;2024-02-28T11:49:48;6.80;99.90
48728;DHT22;34527;45.618;5.130;2024-02-28T11:52:14;6.90;99.90
48728;DHT22;34527;45.618;5.130;2024-02-28T11:54:40;6.90;99.90
48728;DHT22;34527;45.618;5.130;2024-02-28T11:57:07;6.90;99.90
48728;DHT22;34527;45.618;5.130;2024-02-28T11:59:36;6.90;99.90
48728;DHT22;34527;45.618;5.130;2024-02-28T12:02:11;7.00;99.90
48728;DHT22;34527;45.618;5.130;2024-02-28T12:04:37;6.90;99.90
48728;DHT22;34527;45.618;5.130;2024-02-28T12:07:03;6.90;99.90
48728;DHT22;34527;45.618;5.130;2024-02-28T12:09:30;6.90;99.90
48728;DHT22;34527;45.618;5.130;2024-02-28T12:11:55;7.00;99.90
48728;DHT22;34527;45.618;5.130;2024-02-28T12:14:21;7.10;99.90
48728;DHT22;34527;45.618;5.130;2024-02-28T12:16:48;7.10;99.90
48728;DHT22;34527;45.618;5.130;2024-02-28T12:19:14;7.10;99.90
48728;DHT22;34527;45.618;5.130;2024-02-28T12:21:41;7.10;99.90
48728;DHT22;34527;45.618;5.130;2024-02-28T12:24:08;7.20;99.90
48728;DHT22;34527;45.618;5.130;2024-02-28T12:26:39;7.20;99.90
48728;DHT22;34527;45.618;5.130;2024-02-28T12:29:05;7.20;99.90
48728;DHT22;34527;45.618;5.130;2024-02-28T12:31:31;7.10;99.90
48728;DHT22;34527;45.618;5.130;2024-02-28T12:33:57;7.20;99.90
48728;DHT22;34527;45.618;5.130;2024-02-28T12:36:23;7.20;99.90
48728;DHT22;34527;45.618;5.130;2024-02-28T12:38:48;7.20;99.90
48728;DHT22;34527;45.618;5.130;2024-02-28T12:41:14;7.30;99.90
48728;DHT22;34527;45.618;5.130;2024-02-28T12:43:40;7.30;99.90
48728;DHT22;34527;45.618;5.130;2024-02-28T12:46:06;7.30;99.90
48728;DHT22;34527;45.618;5.130;2024-02-28T12:48:38;7.20;99.90
48728;DHT22;34527;45.618;5.130;2024-02-28T12:51:05;7.20;99.90
48728;DHT22;34527;45.618;5.130;2024-02-28T12:53:34;7.20;99.90
48728;DHT22;34527;45.618;5.130;2024-02-28T12:56:00;7.10;99.90
48728;DHT22;34527;45.618;5.130;2024-02-28T12:58:25;7.20;99.90
48728;DHT22;34527;45.618;5.130;2024-02-28T13:00:51;7.20;99.90
48728;DHT22;34527;45.618;5.130;2024-02-28T13:03:17;7.20;99.90
48728;DHT22;34527;45.618;5.130;2024-02-28T13:05:43;7.20;99.90
48728;DHT22;34527;45.618;5.130;2024-02-28T13:08:09;7.30;99.90
48728;DHT22;34527;45.618;5.130;2024-02-28T13:10:35;7.20;99.90
48728;DHT22;34527;45.618;5.130;2024-02-28T13:13:05;7.20;99.90
48728;DHT22;34527;45.618;5.130;2024-02-28T13:15:31;7.30;99.90
48728;DHT22;34527;45.618;5.130;2024-02-28T13:17:57;7.20;99.90
48728;DHT22;34527;45.618;5.130;2024-02-28T13:20:22;7.30;99.90
48728;DHT22;34527;45.618;5.130;2024-02-28T13:22:48;7.30;99.90
48728;DHT22;34527;45.618;5.130;2024-02-28T13:25:14;7.40;99.90
48728;DHT22;34527;45.618;5.130;2024-02-28T13:27:40;7.40;99.90
48728;DHT22;34527;45.618;5.130;2024-02-28T13:30:06;7.40;99.90
48728;DHT22;34527;45.618;5.130;2024-02-28T13:32:32;7.40;99.90
48728;DHT22;34527;45.618;5.130;2024-02-28T13:34:58;7.50;99.90
48728;DHT22;34527;45.618;5.130;2024-02-28T13:37:25;7.50;99.90
48728;DHT22;34527;45.618;5.130;2024-02-28T13:39:50;7.50;99.90
48728;DHT22;34527;45.618;5.130;2024-02-28T13:42:17;7.50;99.90
48728;DHT22;34527;45.618;5.130;2024-02-28T13:44:45;7.60;99.90
48728;DHT22;34527;45.618;5.130;2024-02-28T13:47:12;7.60;99.90
48728;DHT22;34527;45.618;5.130;2024-02-28T13:49:39;7.60;99.90
48728;DHT22;34527;45.618;5.130;2024-02-28T13:52:05;7.60;99.90
48728;DHT22;34527;45.618;5.130;2024-02-28T13:54:31;7.60;99.90
48728;DHT22;34527;45.618;5.130;2024-02-28T13:56:57;7.70;99.90
48728;DHT22;34527;45.618;5.130;2024-02-28T13:59:23;7.60;99.90
48728;DHT22;34527;45.618;5.130;2024-02-28T14:01:49;7.70;99.90
48728;DHT22;34527;45.618;5.130;2024-02-28T14:04:15;7.70;99.90
48728;DHT22;34527;45.618;5.130;2024-02-28T14:06:41;7.80;99.90
48728;DHT22;34527;45.618;5.130;2024-02-28T14:09:07;7.80;99.90
48728;DHT22;34527;45.618;5.130;2024-02-28T14:11:32;7.90;99.90
48728;DHT22;34527;45.618;5.130;2024-02-28T14:13:58;7.90;99.90
48728;DHT22;34527;45.618;5.130;2024-02-28T14:16:24;7.90;99.90
48728;DHT22;34527;45.618;5.130;2024-02-28T14:18:51;7.90;99.90
48728;DHT22;34527;45.618;5.130;2024-02-28T14:21:16;7.90;99.90
48728;DHT22;34527;45.618;5.130;2024-02-28T14:23:42;7.90;99.90
48728;DHT22;34527;45.618;5.130;2024-02-28T14:26:08;8.00;99.90
48728;DHT22;34527;45.618;5.130;2024-02-28T14:28:34;8.00;99.90
48728;DHT22;34527;45.618;5.130;2024-02-28T14:31:00;8.00;99.90
48728;DHT22;34527;45.618;5.130;2024-02-28T14:33:25;8.10;99.90
48728;DHT22;34527;45.618;5.130;2024-02-28T14:35:51;8.10;99.90
48728;DHT22;34527;45.618;5.130;2024-02-28T14:38:17;8.10;99.90
48728;DHT22;34527;45.618;5.130;2024-02-28T14:40:43;8.20;99.90
48728;DHT22;34527;45.618;5.130;2024-02-28T14:43:09;8.20;99.90
48728;DHT22;34527;45.618;5.130;2024-02-28T14:45:35;8.20;99.90
48728;DHT22;34527;45.618;5.130;2024-02-28T14:48:01;8.20;99.90
48728;DHT22;34527;45.618;5.130;2024-02-28T14:50:27;8.20;99.90
48728;DHT22;34527;45.618;5.130;2024-02-28T14:52:53;8.30;99.90
48728;DHT22;34527;45.618;5.130;2024-02-28T14:55:18;8.20;99.90
48728;DHT22;34527;45.618;5.130;2024-02-28T14:57:44;8.20;99.90
48728;DHT22;34527;45.618;5.130;2024-02-28T15:00:10;8.20;99.90
48728;DHT22;34527;45.618;5.130;2024-02-28T15:02:42;8.30;99.90
48728;DHT22;34527;45.618;5.130;2024-02-28T15:05:08;8.40;99.90
48728;DHT22;34527;45.618;5.130;2024-02-28T15:07:34;8.40;99.90
48728;DHT22;34527;45.618;5.130;2024-02-28T15:10:01;8.40;99.90
48728;DHT22;34527;45.618;5.130;2024-02-28T15:12:30;8.40;99.90
48728;DHT22;34527;45.618;5.130;2024-02-28T15:15:01;8.40;99.90
48728;DHT22;34527;45.618;5.130;2024-02-28T15:17:28;8.40;99.90
48728;DHT22;34527;45.618;5.130;2024-02-28T15:19:54;8.40;99.90
48728;DHT22;34527;45.618;5.130;2024-02-28T15:22:19;8.50;99.90
48728;DHT22;34527;45.618;5.130;2024-02-28T15:24:45;8.50;99.90
48728;DHT22;34527;45.618;5.130;2024-02-28T15:27:12;8.50;99.90
48728;DHT22;34527;45.618;5.130;2024-02-28T15:29:37;8.60;99.90
48728;DHT22;34527;45.618;5.130;2024-02-28T15:32:03;8.60;99.90
48728;DHT22;34527;45.618;5.130;2024-02-28T15:34:29;8.50;99.90
48728;DHT22;34527;45.618;5.130;2024-02-28T15:36:54;8.50;99.90
48728;DHT22;34527;45.618;5.130;2024-02-28T15:39:20;8.50;99.90